Airfield :







YOU CAN JOIN US ON...

 
LOGIN :

Register | Disclaimer

   EN    FR    IT 

 









Legend :    VFR   Marginal VFR   IFR   Intensive IFR   Very Intensive IFR
Visi :
Ceiling :
>= 8 km
>= 3000ft
5 to 8 km
1000 to 3000 ft
1500m to 5 km
500 to 1000 ft
800 to 1500m
200 to 500 ft
< 800m
< 200 ft
Symbols :   Thunderstorms  Fog  Heavy snow  Heavy precipitations  Wind > 20 kt







- Airport Elevation : 333 ft


KWVL - Waterville Robert Lafleur

CURRENT METAR :
  • 230456Z AUTO 02014KT 5SM -RA BR OVC006 09/09 A3002 RMK AO2 CIG 004V009 SLP193 P0004 T00940089 401720094

EXPIRED METARs :
  • 230426Z AUTO 02014KT 8SM -RA BKN008 OVC024 09/09 A3004 RMK AO2 CIG 006V011 P0002
  • 230414Z AUTO 02013KT 6SM -RA BR FEW008 OVC022 09/09 A3004 RMK AO2 P0002
  • 230356Z AUTO 02015KT 6SM -RA BR OVC022 09/09 A3004 RMK AO2 RAB07 SLP201 P0007 T00940089
  • 230256Z AUTO 02013G18KT 10SM OVC024 11/08 A3006 RMK AO2 RAE53 SLP205 P0001 60001 T01060083 58006

TAF N/A
KZBW FIR / North America



MET'MAP, your aeronautical weather chart ! - Copyright ORBIFLY December 2007 - Disclaimer

ORBIFLY MET'MAP TEAM :

Programming & Development : Alexandra Zaïnal
Concept & Development : Baudouin d'Aumeries
Co-Development & Prog : Marc-Olivier Méhu
Technical & hardware support : Manuel Goepfert

Contact : metmap@orbifly.com




SOURCES & CREDITS :

   NOAA